Monica Lynn — WDF7771 — position and weather

sailwx.info

Track history (hours):
 
Tides and Currents Weather Stations Pressure Air Temp Water Temp Dewpoint Dewpoint Depression Visibility Wind Speed Wind Dir Waves Ship Positions

Monica Lynn

Owner: KMD Marine, Inc., Sullivans Island, SC. More information available from US FCC via Universal Licensing System and Coast Guard Vessel Documentation Center.

Last reported at 2017-Sep-21 16:59 UTC. Time now 2017-Sep-22 09:57 UTC.
Position N 31°43' W 081°09'.

Length 20 m; draft 2.5 m.

Type: Tug. MMSI: 367487960.

Date/timePositionNaut miles runAvg speedWind from/ knotsBaromVisibWave heightAir tempDewpointWater temp
2017-Sep-21 16:59N 31°43' W 081°09'3 6.2
2017-Sep-21 16:30N 31°46' W 081°10'2 3.7
2017-Sep-21 16:00N 31°48' W 081°11'2 3.9
2017-Sep-21 15:30N 31°49' W 081°10'2 3.2
2017-Sep-21 15:00N 31°51' W 081°09'2 4.3
2017-Sep-21 14:30N 31°51' W 081°06'2 3.3
2017-Sep-21 14:01N 31°52' W 081°05'2 3.3
2017-Sep-21 13:31N 31°54' W 081°06'2 3.2
2017-Sep-21 13:00N 31°55' W 081°06'2 3.3
2017-Sep-21 12:31N 31°55' W 081°04'1 2.6
2017-Sep-21 12:00N 31°57' W 081°04'2 3.6
2017-Sep-21 11:30N 31°58' W 081°03'2 3.2
2017-Sep-21 11:00N 31°59' W 081°02'2 3.8
2017-Sep-21 10:30N 32°01' W 081°01'2 3.1
2017-Sep-21 10:01N 32°02' W 081°03'2 3.3
2017-Sep-21 09:30N 32°03' W 081°02'2 3.3
2017-Sep-21 09:01N 32°04' W 081°01'2 3.7
2017-Sep-21 08:31N 32°04' W 080°59'2 3.8
2017-Sep-21 08:00N 32°05' W 080°56'1 2.9
2017-Sep-21 07:31N 32°05' W 080°55'2 4.1
2017-Sep-21 07:00N 32°07' W 080°54'1 2.2
2017-Sep-21 06:31N 32°08' W 080°53'2 3.2
2017-Sep-21 06:00N 32°09' W 080°52'2 3.2
2017-Sep-21 05:31N 32°09' W 080°50'3 6.2
2017-Sep-21 05:00N 32°11' W 080°47'3 4.0
2017-Sep-21 04:23N 32°14' W 080°46'2 3.3
2017-Sep-21 03:46N 32°15' W 080°45'1 2.7
2017-Sep-21 03:31N 32°16' W 080°44'2 2.6
2017-Sep-21 02:38N 32°16' W 080°42'1 4.0
2017-Sep-21 02:24N 32°16' W 080°41'2 3.3
2017-Sep-21 01:49N 32°18' W 080°39'4 2.7
2017-Sep-21 00:13N 32°22' W 080°41'1 2.7
2017-Sep-21 00:01N 32°23' W 080°41'  
2017-Sep-16 06:40N 33°01' W 079°55'0 0.0
2017-Sep-16 06:28N 33°01' W 079°55'0 0.0
2017-Sep-16 05:51N 33°01' W 079°55'  
Track history (hours):
 
Tides and Currents Weather Stations Pressure Air Temp Water Temp Dewpoint Dewpoint Depression Visibility Wind Speed Wind Dir Waves Ship Positions

Monica Lynn

Owner: KMD Marine, Inc., Sullivans Island, SC. More information available from US FCC via Universal Licensing System and Coast Guard Vessel Documentation Center.

Last reported at 2017-Sep-21 16:59 UTC. Time now 2017-Sep-22 09:57 UTC.
Position N 31°43' W 081°09'.

Length 20 m; draft 2.5 m.

Type: Tug. MMSI: 367487960.

Date/timePositionNaut miles runAvg speedWind from/ knotsBaromVisibWave heightAir tempDewpointWater temp
2017-Sep-21 16:59N 31°43' W 081°09'3 6.2
2017-Sep-21 16:30N 31°46' W 081°10'2 3.7
2017-Sep-21 16:00N 31°48' W 081°11'2 3.9
2017-Sep-21 15:30N 31°49' W 081°10'2 3.2
2017-Sep-21 15:00N 31°51' W 081°09'2 4.3
2017-Sep-21 14:30N 31°51' W 081°06'2 3.3
2017-Sep-21 14:01N 31°52' W 081°05'2 3.3
2017-Sep-21 13:31N 31°54' W 081°06'2 3.2
2017-Sep-21 13:00N 31°55' W 081°06'2 3.3
2017-Sep-21 12:31N 31°55' W 081°04'1 2.6
2017-Sep-21 12:00N 31°57' W 081°04'2 3.6
2017-Sep-21 11:30N 31°58' W 081°03'2 3.2
2017-Sep-21 11:00N 31°59' W 081°02'2 3.8
2017-Sep-21 10:30N 32°01' W 081°01'2 3.1
2017-Sep-21 10:01N 32°02' W 081°03'2 3.3
2017-Sep-21 09:30N 32°03' W 081°02'2 3.3
2017-Sep-21 09:01N 32°04' W 081°01'2 3.7
2017-Sep-21 08:31N 32°04' W 080°59'2 3.8
2017-Sep-21 08:00N 32°05' W 080°56'1 2.9
2017-Sep-21 07:31N 32°05' W 080°55'2 4.1
2017-Sep-21 07:00N 32°07' W 080°54'1 2.2
2017-Sep-21 06:31N 32°08' W 080°53'2 3.2
2017-Sep-21 06:00N 32°09' W 080°52'2 3.2
2017-Sep-21 05:31N 32°09' W 080°50'3 6.2
2017-Sep-21 05:00N 32°11' W 080°47'3 4.0
2017-Sep-21 04:23N 32°14' W 080°46'2 3.3
2017-Sep-21 03:46N 32°15' W 080°45'1 2.7
2017-Sep-21 03:31N 32°16' W 080°44'2 2.6
2017-Sep-21 02:38N 32°16' W 080°42'1 4.0
2017-Sep-21 02:24N 32°16' W 080°41'2 3.3
2017-Sep-21 01:49N 32°18' W 080°39'4 2.7
2017-Sep-21 00:13N 32°22' W 080°41'1 2.7
2017-Sep-21 00:01N 32°23' W 080°41'  
2017-Sep-16 06:40N 33°01' W 079°55'0 0.0
2017-Sep-16 06:28N 33°01' W 079°55'0 0.0
2017-Sep-16 05:51N 33°01' W 079°55'  

Dump ship's entire track history